createdAt,value
2017-03-15T00:00:13.836Z,0
2017-03-15T00:01:15.696Z,0
2017-03-15T00:02:17.557Z,0
2017-03-15T00:03:19.760Z,0
2017-03-15T00:04:21.981Z,0
2017-03-15T00:05:23.839Z,0
2017-03-15T00:06:25.691Z,0
2017-03-15T00:07:27.563Z,0
2017-03-15T00:08:29.441Z,0
2017-03-15T00:09:31.646Z,0
2017-03-15T00:10:33.500Z,0
2017-03-15T00:11:35.390Z,0
2017-03-15T00:12:37.244Z,0
2017-03-15T00:13:39.456Z,0
2017-03-15T00:14:42.079Z,0
2017-03-15T00:15:43.943Z,0
2017-03-15T00:16:46.149Z,0
2017-03-15T00:17:48.361Z,0
2017-03-15T00:18:50.562Z,0
2017-03-15T00:19:52.417Z,0
2017-03-15T00:20:54.952Z,0
2017-03-15T00:21:56.800Z,0
2017-03-15T00:22:59.008Z,0
2017-03-15T00:24:00.857Z,0
2017-03-15T00:25:03.066Z,0
2017-03-15T00:26:04.922Z,0
2017-03-15T00:27:06.781Z,0
2017-03-15T00:28:08.629Z,0
2017-03-15T00:29:10.504Z,0
2017-03-15T00:30:12.697Z,0
2017-03-15T00:31:14.574Z,0
2017-03-15T00:32:16.782Z,0
2017-03-15T00:33:18.635Z,0
2017-03-15T00:34:20.854Z,0
2017-03-15T00:35:23.410Z,0
2017-03-15T00:36:25.260Z,0
2017-03-15T00:37:27.123Z,0
2017-03-15T00:38:28.974Z,0
2017-03-15T00:39:30.847Z,0
2017-03-15T00:40:33.741Z,0
2017-03-15T00:41:36.266Z,0
2017-03-15T00:42:38.118Z,0
2017-03-15T00:43:39.981Z,0
2017-03-15T00:44:41.846Z,0
2017-03-15T00:45:44.078Z,0
2017-03-15T00:46:46.668Z,0
2017-03-15T00:47:49.200Z,0
2017-03-15T00:48:51.410Z,0
2017-03-15T00:49:53.613Z,0
2017-03-15T00:50:56.161Z,0
2017-03-15T00:51:58.025Z,0
2017-03-15T00:52:59.901Z,0
2017-03-15T00:54:01.758Z,0
2017-03-15T00:55:03.619Z,0
2017-03-15T00:56:05.484Z,0
2017-03-15T00:57:07.339Z,0
2017-03-15T00:58:09.207Z,0
2017-03-15T00:59:11.067Z,0
2017-03-15T01:00:13.305Z,0
2017-03-15T01:01:15.175Z,0
2017-03-15T01:02:17.064Z,0
2017-03-15T01:03:18.929Z,0
2017-03-15T01:04:20.808Z,0
2017-03-15T01:05:23.002Z,0
2017-03-15T01:06:25.201Z,0
2017-03-15T01:07:27.391Z,0
2017-03-15T01:08:29.949Z,0
2017-03-15T01:09:31.798Z,0
2017-03-15T01:10:33.654Z,0
2017-03-15T01:11:35.845Z,0
2017-03-15T01:12:37.714Z,0
2017-03-15T01:13:40.279Z,0
2017-03-15T01:14:42.476Z,0
2017-03-15T01:15:44.344Z,0
2017-03-15T01:16:46.207Z,0
2017-03-15T01:17:48.079Z,0
2017-03-15T01:18:50.264Z,0
2017-03-15T01:19:52.487Z,0
2017-03-15T01:20:54.690Z,0
2017-03-15T01:21:57.578Z,0
2017-03-15T01:22:59.791Z,0
2017-03-15T01:24:01.641Z,0
2017-03-15T01:25:03.502Z,0
2017-03-15T01:26:05.381Z,0
2017-03-15T01:27:07.252Z,0
2017-03-15T01:28:09.459Z,0
2017-03-15T01:29:11.316Z,0
2017-03-15T01:30:13.527Z,0
2017-03-15T01:31:15.394Z,0
2017-03-15T01:32:17.271Z,0
2017-03-15T01:33:19.481Z,0
2017-03-15T01:34:22.355Z,0
2017-03-15T01:35:24.216Z,0
2017-03-15T01:36:26.424Z,0
2017-03-15T01:37:28.968Z,0
2017-03-15T01:38:31.168Z,0
2017-03-15T01:39:33.020Z,0
2017-03-15T01:40:35.217Z,0
2017-03-15T01:41:37.081Z,0
2017-03-15T01:42:39.619Z,0
2017-03-15T01:43:42.166Z,0
2017-03-15T01:44:44.362Z,0
2017-03-15T01:45:46.223Z,0
2017-03-15T01:46:48.077Z,0
2017-03-15T01:47:50.293Z,0
2017-03-15T01:48:52.844Z,0
2017-03-15T01:49:54.690Z,0
2017-03-15T01:50:56.573Z,0
2017-03-15T01:51:58.785Z,0
2017-03-15T01:53:00.987Z,0
2017-03-15T01:54:02.859Z,0
2017-03-15T01:55:04.723Z,0
2017-03-15T01:56:06.588Z,0
2017-03-15T01:57:08.448Z,0
2017-03-15T01:58:10.325Z,0
2017-03-15T01:59:12.182Z,0
2017-03-15T02:00:14.040Z,0
2017-03-15T02:01:15.904Z,0
2017-03-15T02:02:17.768Z,0
2017-03-15T02:03:19.639Z,0
2017-03-15T02:04:21.507Z,0
2017-03-15T02:05:23.717Z,0
2017-03-15T02:06:25.911Z,0
2017-03-15T02:07:28.116Z,0
2017-03-15T02:08:30.314Z,0
2017-03-15T02:09:32.846Z,0
2017-03-15T02:10:35.043Z,0
2017-03-15T02:11:36.901Z,0
2017-03-15T02:12:38.768Z,0
2017-03-15T02:13:40.968Z,0
2017-03-15T02:14:43.491Z,0
2017-03-15T02:15:45.698Z,0
2017-03-15T02:16:47.915Z,0
2017-03-15T02:17:49.789Z,0
2017-03-15T02:18:51.638Z,0
2017-03-15T02:19:53.513Z,0
2017-03-15T02:20:55.379Z,0
2017-03-15T02:21:57.247Z,0
2017-03-15T02:22:59.467Z,0
2017-03-15T02:24:01.314Z,0
2017-03-15T02:25:03.181Z,0
2017-03-15T02:26:05.399Z,0
2017-03-15T02:27:07.269Z,0
2017-03-15T02:28:09.465Z,0
2017-03-15T02:29:11.326Z,0
2017-03-15T02:30:13.888Z,0
2017-03-15T02:31:15.736Z,0
2017-03-15T02:32:17.598Z,0
2017-03-15T02:33:19.448Z,0
2017-03-15T02:34:21.318Z,0
2017-03-15T02:35:23.173Z,0
2017-03-15T02:36:25.027Z,0
2017-03-15T02:37:26.881Z,0
2017-03-15T02:38:28.758Z,0
2017-03-15T02:39:30.607Z,0
2017-03-15T02:40:32.460Z,0
2017-03-15T02:41:34.992Z,0
2017-03-15T02:42:36.852Z,0
2017-03-15T02:43:38.714Z,0
2017-03-15T02:44:40.581Z,0
2017-03-15T02:45:42.441Z,0
2017-03-15T02:46:44.656Z,0
2017-03-15T02:47:46.552Z,0
2017-03-15T02:48:48.400Z,0
2017-03-15T02:49:50.611Z,0
2017-03-15T02:50:52.477Z,0
2017-03-15T02:51:54.338Z,0
2017-03-15T02:52:56.205Z,0
2017-03-15T02:53:58.062Z,0
2017-03-15T02:54:59.931Z,0
2017-03-15T02:56:01.781Z,0
2017-03-15T02:57:03.637Z,0
2017-03-15T02:58:05.836Z,0
2017-03-15T02:59:07.713Z,0
2017-03-15T03:00:09.559Z,0
2017-03-15T03:01:11.775Z,0
2017-03-15T03:02:13.636Z,0
2017-03-15T03:03:15.507Z,0
2017-03-15T03:04:17.371Z,0
2017-03-15T03:05:19.210Z,0
2017-03-15T03:06:21.065Z,0
2017-03-15T03:07:22.940Z,0
2017-03-15T03:08:25.476Z,0
2017-03-15T03:09:27.355Z,0
2017-03-15T03:10:29.593Z,0
2017-03-15T03:11:31.802Z,0
2017-03-15T03:12:34.012Z,0
2017-03-15T03:13:35.866Z,0
2017-03-15T03:14:37.733Z,0
2017-03-15T03:15:39.591Z,0
2017-03-15T03:16:41.791Z,0
2017-03-15T03:17:44.018Z,0
2017-03-15T03:18:46.231Z,0
2017-03-15T03:19:48.115Z,0
2017-03-15T03:20:50.334Z,0
2017-03-15T03:21:52.896Z,0
2017-03-15T03:22:54.764Z,0
2017-03-15T03:23:56.969Z,0
2017-03-15T03:24:59.176Z,0
2017-03-15T03:26:01.371Z,0
2017-03-15T03:27:03.567Z,0
2017-03-15T03:28:05.450Z,0
2017-03-15T03:29:08.342Z,0
2017-03-15T03:30:10.218Z,0
2017-03-15T03:31:12.433Z,0
2017-03-15T03:32:14.669Z,0
2017-03-15T03:33:16.529Z,0
2017-03-15T03:34:18.737Z,0
2017-03-15T03:35:20.585Z,0
2017-03-15T03:36:22.792Z,0
2017-03-15T03:37:24.640Z,0
2017-03-15T03:38:26.514Z,0
2017-03-15T03:39:28.695Z,0
2017-03-15T03:40:30.894Z,0
2017-03-15T03:41:34.098Z,0
2017-03-15T03:42:35.954Z,0
2017-03-15T03:43:38.500Z,0
2017-03-15T03:44:41.031Z,0
2017-03-15T03:45:43.237Z,0
2017-03-15T03:46:45.425Z,0
2017-03-15T03:47:47.620Z,0
2017-03-15T03:48:49.817Z,0
2017-03-15T03:49:51.698Z,0
2017-03-15T03:50:53.554Z,0
2017-03-15T03:51:55.767Z,0
2017-03-15T03:52:57.630Z,0
2017-03-15T03:53:59.490Z,0
2017-03-15T03:56:18.572Z,0
2017-03-15T03:57:20.424Z,0
2017-03-15T03:58:22.329Z,0
2017-03-15T03:59:24.192Z,0
2017-03-15T04:00:26.406Z,0
2017-03-15T04:01:28.597Z,0
2017-03-15T04:02:30.802Z,0
2017-03-15T04:03:33.015Z,0
2017-03-15T04:04:34.868Z,0
2017-03-15T04:05:36.732Z,0
2017-03-15T04:06:38.931Z,0
2017-03-15T04:07:41.146Z,0
2017-03-15T04:08:43.022Z,0
2017-03-15T04:09:45.248Z,0
2017-03-15T04:10:47.108Z,0
2017-03-15T04:11:49.654Z,0
2017-03-15T04:12:51.507Z,0
2017-03-15T04:13:53.705Z,0
2017-03-15T04:14:55.894Z,0
2017-03-15T04:15:57.750Z,0
2017-03-15T04:16:59.617Z,0
2017-03-15T04:18:01.468Z,0
2017-03-15T04:19:03.321Z,0
2017-03-15T04:20:05.186Z,0
2017-03-15T04:21:07.372Z,0
2017-03-15T04:22:09.232Z,0
2017-03-15T04:23:11.089Z,0
2017-03-15T04:24:12.942Z,0
2017-03-15T04:25:14.803Z,0
2017-03-15T04:26:17.343Z,0
2017-03-15T04:27:19.564Z,0
2017-03-15T04:28:21.432Z,0
2017-03-15T04:29:23.292Z,0
2017-03-15T04:30:25.495Z,0
2017-03-15T04:31:27.369Z,0
2017-03-15T04:32:29.915Z,0
2017-03-15T04:33:32.784Z,0
2017-03-15T04:34:35.323Z,0
2017-03-15T04:35:37.181Z,0
2017-03-15T04:36:39.541Z,0
2017-03-15T04:37:41.402Z,0
2017-03-15T04:38:43.252Z,0
2017-03-15T04:39:45.466Z,0
2017-03-15T04:40:47.676Z,0
2017-03-15T04:41:49.885Z,0
2017-03-15T04:42:52.123Z,0
2017-03-15T04:43:53.979Z,0
2017-03-15T04:44:56.186Z,1
2017-03-15T04:45:58.042Z,1
2017-03-15T04:47:00.262Z,1
2017-03-15T04:48:02.464Z,1
2017-03-15T04:49:04.999Z,1
2017-03-15T04:50:06.861Z,1
2017-03-15T04:51:08.715Z,0
2017-03-15T04:52:10.591Z,0
2017-03-15T04:53:12.469Z,1
2017-03-15T04:54:14.674Z,1
2017-03-15T04:55:16.542Z,3
2017-03-15T04:56:18.746Z,2
2017-03-15T04:57:20.951Z,2
2017-03-15T04:58:22.816Z,3
2017-03-15T04:59:24.662Z,3
2017-03-15T05:00:26.530Z,4
2017-03-15T05:01:28.423Z,5
2017-03-15T05:02:30.277Z,7
2017-03-15T05:03:32.483Z,7
2017-03-15T05:04:34.678Z,9
2017-03-15T05:05:36.530Z,10
2017-03-15T05:06:38.749Z,12
2017-03-15T05:07:41.296Z,14
2017-03-15T05:08:43.164Z,17
2017-03-15T05:09:45.688Z,20
2017-03-15T05:10:47.558Z,24
2017-03-15T05:11:49.753Z,28
2017-03-15T05:12:51.626Z,30
2017-03-15T05:13:53.473Z,33
2017-03-15T05:14:55.661Z,41
2017-03-15T05:15:57.858Z,51
2017-03-15T05:16:59.719Z,61
2017-03-15T05:18:01.583Z,72
2017-03-15T05:19:03.785Z,83
2017-03-15T05:20:05.640Z,96
2017-03-15T05:21:07.492Z,110
2017-03-15T05:22:09.697Z,125
2017-03-15T05:23:11.555Z,141
2017-03-15T05:24:13.747Z,159
2017-03-15T05:25:15.961Z,178
2017-03-15T05:26:17.831Z,199
2017-03-15T05:27:19.702Z,220
2017-03-15T05:28:21.563Z,245
2017-03-15T05:29:24.457Z,268
2017-03-15T05:30:26.673Z,293
2017-03-15T05:31:28.536Z,318
2017-03-15T05:32:30.434Z,346
2017-03-15T05:33:32.622Z,375
2017-03-15T05:34:35.163Z,404
2017-03-15T05:35:37.016Z,435
2017-03-15T05:36:38.870Z,464
2017-03-15T05:37:41.074Z,496
2017-03-15T05:38:43.635Z,532
2017-03-15T05:39:45.838Z,573
2017-03-15T05:40:48.399Z,617
2017-03-15T05:41:50.937Z,657
2017-03-15T05:42:53.125Z,697
2017-03-15T05:43:54.986Z,738
2017-03-15T05:44:56.849Z,779
2017-03-15T05:45:58.705Z,817
2017-03-15T05:47:00.916Z,859
2017-03-15T05:48:02.773Z,898
2017-03-15T05:49:04.632Z,940
2017-03-15T05:50:07.239Z,982
2017-03-15T05:51:09.099Z,1024
2017-03-15T05:52:11.316Z,1066
2017-03-15T05:53:13.514Z,1114
2017-03-15T05:54:15.427Z,1161
2017-03-15T05:55:17.283Z,1210
2017-03-15T05:56:19.145Z,1262
2017-03-15T05:57:21.117Z,1304
2017-03-15T05:58:23.374Z,1354
2017-03-15T05:59:25.604Z,1412
2017-03-15T06:00:27.487Z,1489
2017-03-15T06:01:29.441Z,1582
2017-03-15T06:02:31.313Z,1655
2017-03-15T06:03:33.174Z,1669
2017-03-15T06:04:35.716Z,1653
2017-03-15T06:05:38.298Z,1628
2017-03-15T06:06:40.514Z,1632
2017-03-15T06:07:42.451Z,1647
2017-03-15T06:08:44.995Z,1656
2017-03-15T06:09:46.858Z,1652
2017-03-15T06:10:48.808Z,1742
2017-03-15T06:11:51.034Z,1797
2017-03-15T06:12:53.007Z,1746
2017-03-15T06:13:55.597Z,1728
2017-03-15T06:14:58.164Z,1803
2017-03-15T06:16:00.014Z,1877
2017-03-15T06:17:01.885Z,1926
2017-03-15T06:18:04.092Z,1996
2017-03-15T06:19:05.960Z,2072
2017-03-15T06:20:08.545Z,2149
2017-03-15T06:21:10.492Z,2215
2017-03-15T06:22:12.740Z,2258
2017-03-15T06:23:14.702Z,2289
2017-03-15T06:24:16.582Z,2312
2017-03-15T06:25:18.502Z,2307
2017-03-15T06:26:20.356Z,2325
2017-03-15T06:27:22.940Z,2454
2017-03-15T06:28:25.175Z,2508
2017-03-15T06:29:27.473Z,2857
2017-03-15T06:30:29.754Z,3191
2017-03-15T06:31:31.675Z,2902
2017-03-15T06:32:33.631Z,2986
2017-03-15T06:33:36.174Z,2636
2017-03-15T06:34:38.051Z,2720
2017-03-15T06:35:39.921Z,3011
2017-03-15T06:36:42.520Z,3069
2017-03-15T06:37:45.059Z,3290
2017-03-15T06:38:47.958Z,3465
2017-03-15T06:39:50.529Z,3198
2017-03-15T06:40:53.413Z,3206
2017-03-15T06:41:55.691Z,3270
2017-03-15T06:42:57.912Z,3373
2017-03-15T06:43:59.789Z,3498
2017-03-15T06:45:01.991Z,3685
2017-03-15T06:46:03.883Z,3824
2017-03-15T06:47:05.757Z,3940
2017-03-15T06:48:07.972Z,4018
2017-03-15T06:49:09.881Z,4041
2017-03-15T06:50:12.108Z,4081
2017-03-15T06:51:13.983Z,4079
2017-03-15T06:52:15.906Z,4107
2017-03-15T06:53:17.837Z,4073
2017-03-15T06:54:20.053Z,3924
2017-03-15T06:55:21.900Z,3922
2017-03-15T06:56:23.770Z,3939
2017-03-15T06:57:26.668Z,3725
2017-03-15T06:58:28.948Z,3642
2017-03-15T06:59:31.161Z,3756
2017-03-15T07:00:33.034Z,3819
2017-03-15T07:01:35.251Z,3942
2017-03-15T07:02:37.608Z,4010
2017-03-15T07:03:39.620Z,4010
2017-03-15T07:04:41.488Z,4025
2017-03-15T07:05:43.374Z,4096
2017-03-15T07:06:45.909Z,4082
2017-03-15T07:07:48.102Z,4159
2017-03-15T07:08:50.307Z,4120
2017-03-15T07:09:52.184Z,4091
2017-03-15T07:10:54.449Z,4147
2017-03-15T07:11:56.309Z,4314
2017-03-15T07:12:58.742Z,4493
2017-03-15T07:14:00.949Z,4626
2017-03-15T07:15:02.827Z,4500
2017-03-15T07:16:05.387Z,4515
2017-03-15T07:17:07.270Z,4420
2017-03-15T07:18:09.141Z,4399
2017-03-15T07:19:11.697Z,4395
2017-03-15T07:20:14.582Z,4411
2017-03-15T07:21:16.959Z,4508
2017-03-15T07:22:18.836Z,4562
2017-03-15T07:23:20.706Z,4608
2017-03-15T07:24:23.148Z,4725
2017-03-15T07:25:24.995Z,4889
2017-03-15T07:26:27.200Z,4910
2017-03-15T07:27:29.309Z,4917
2017-03-15T07:28:31.162Z,4933
2017-03-15T07:29:33.053Z,5014
2017-03-15T07:30:35.190Z,5108
2017-03-15T07:31:37.081Z,5158
2017-03-15T07:32:38.949Z,5196
2017-03-15T07:33:41.005Z,5187
2017-03-15T07:34:42.885Z,5636
2017-03-15T07:35:44.783Z,6838
2017-03-15T07:36:46.841Z,6726
2017-03-15T07:37:49.386Z,6218
2017-03-15T07:38:51.250Z,6303
2017-03-15T07:39:53.379Z,6112
2017-03-15T07:40:55.585Z,7275
2017-03-15T07:41:57.735Z,7442
2017-03-15T07:42:59.967Z,5724
2017-03-15T07:44:01.832Z,5932
2017-03-15T07:45:03.759Z,8739
2017-03-15T07:46:05.633Z,15934
2017-03-15T07:47:07.826Z,20483
2017-03-15T07:48:09.947Z,22832
2017-03-15T07:49:12.151Z,26469
2017-03-15T07:50:14.031Z,27862
2017-03-15T07:51:16.231Z,5691
2017-03-15T07:52:18.427Z,4969
2017-03-15T07:53:20.980Z,10956
2017-03-15T07:54:23.456Z,29899
2017-03-15T07:55:25.329Z,29041
2017-03-15T07:56:27.573Z,32129
2017-03-15T07:57:30.086Z,65536
2017-03-15T07:58:31.956Z,65536
2017-03-15T07:59:34.088Z,29772
2017-03-15T08:00:36.302Z,24597
2017-03-15T08:01:38.187Z,18658
2017-03-15T08:02:40.178Z,18553
2017-03-15T08:03:42.409Z,21374
2017-03-15T08:04:44.611Z,27369
2017-03-15T08:05:46.477Z,65536
2017-03-15T08:06:48.337Z,65536
2017-03-15T08:07:50.215Z,65536
2017-03-15T08:08:52.226Z,28095
2017-03-15T08:09:54.117Z,32037
2017-03-15T08:10:55.993Z,65536
2017-03-15T08:11:58.546Z,65536
2017-03-15T08:13:00.779Z,65536
2017-03-15T08:14:02.635Z,65536
2017-03-15T08:15:04.484Z,65536
2017-03-15T08:16:06.365Z,65536
2017-03-15T08:17:08.253Z,65536
2017-03-15T08:18:10.272Z,65536
2017-03-15T08:19:12.479Z,65536
2017-03-15T08:20:14.351Z,65536
2017-03-15T08:21:16.289Z,65536
2017-03-15T08:22:18.864Z,65536
2017-03-15T08:23:20.746Z,30168
2017-03-15T08:24:22.607Z,30395
2017-03-15T08:25:25.168Z,30055
2017-03-15T08:26:27.399Z,30113
2017-03-15T08:27:29.555Z,29822
2017-03-15T08:28:31.418Z,29838
2017-03-15T08:29:33.299Z,65536
2017-03-15T08:30:35.351Z,65536
2017-03-15T08:31:37.215Z,65536
2017-03-15T08:32:39.098Z,65536
2017-03-15T08:33:40.975Z,65536
2017-03-15T08:34:42.862Z,65536
2017-03-15T08:35:44.750Z,65536
2017-03-15T08:36:47.059Z,65536
2017-03-15T08:37:48.927Z,65536
2017-03-15T08:38:50.795Z,65536
2017-03-15T08:39:52.677Z,65536
2017-03-15T08:40:54.541Z,65536
2017-03-15T08:41:56.430Z,65536
2017-03-15T08:42:58.295Z,65536
2017-03-15T08:44:00.161Z,65536
2017-03-15T08:45:02.025Z,65536
2017-03-15T08:46:04.223Z,65536
2017-03-15T08:47:06.099Z,65536
2017-03-15T08:48:08.313Z,65536
2017-03-15T08:49:10.186Z,65536
2017-03-15T08:50:12.049Z,65536
2017-03-15T08:51:13.913Z,65536
2017-03-15T08:52:15.772Z,65536
2017-03-15T08:53:17.983Z,65536
2017-03-15T08:54:19.865Z,65536
2017-03-15T08:55:21.744Z,65536
2017-03-15T08:56:23.612Z,65536
2017-03-15T08:57:25.483Z,65536
2017-03-15T08:58:27.371Z,65536
2017-03-15T08:59:29.242Z,65536
2017-03-15T09:00:31.109Z,65536
2017-03-15T09:01:33.305Z,65536
2017-03-15T09:02:35.172Z,65536
2017-03-15T09:03:37.035Z,65536
2017-03-15T09:04:38.906Z,65536
2017-03-15T09:05:41.108Z,65536
2017-03-15T09:06:42.979Z,65536
2017-03-15T09:07:44.844Z,65536
2017-03-15T09:08:46.704Z,65536
2017-03-15T09:09:48.554Z,65536
2017-03-15T09:10:50.424Z,65536
2017-03-15T09:11:52.292Z,65536
2017-03-15T09:12:54.196Z,65536
2017-03-15T09:13:56.405Z,65536
2017-03-15T09:14:58.961Z,65536
2017-03-15T09:16:00.826Z,65536
2017-03-15T09:17:02.694Z,65536
2017-03-15T09:18:04.567Z,65536
2017-03-15T09:19:06.780Z,65536
2017-03-15T09:20:08.985Z,65536
2017-03-15T09:21:10.864Z,65536
2017-03-15T09:22:12.753Z,65536
2017-03-15T09:23:14.622Z,65536
2017-03-15T09:24:16.828Z,65536
2017-03-15T09:25:19.049Z,65536
2017-03-15T09:26:21.269Z,65536
2017-03-15T09:27:23.490Z,65536
2017-03-15T09:28:25.349Z,65536
2017-03-15T09:29:27.220Z,65536
2017-03-15T09:30:29.439Z,65536
2017-03-15T09:31:31.649Z,65536
2017-03-15T09:32:33.523Z,65536
2017-03-15T09:33:35.412Z,65536
2017-03-15T09:34:37.627Z,65536
2017-03-15T09:35:39.493Z,65536
2017-03-15T09:36:41.375Z,65536
2017-03-15T09:37:43.243Z,65536
2017-03-15T09:38:45.116Z,65536
2017-03-15T09:39:46.996Z,65536
2017-03-15T09:40:49.226Z,65536
2017-03-15T09:41:51.433Z,65536
2017-03-15T09:42:53.295Z,65536
2017-03-15T09:43:55.502Z,65536
2017-03-15T09:44:57.371Z,65536
2017-03-15T09:45:59.242Z,65536
2017-03-15T09:47:01.104Z,65536
2017-03-15T09:48:03.346Z,65536
2017-03-15T09:49:05.211Z,65536
2017-03-15T09:50:07.090Z,65536
2017-03-15T09:51:08.954Z,65536
2017-03-15T09:52:10.831Z,65536
2017-03-15T09:53:12.706Z,65536
2017-03-15T09:54:14.605Z,65536
2017-03-15T09:55:16.482Z,65536
2017-03-15T09:56:18.350Z,65536
2017-03-15T09:57:20.229Z,65536
2017-03-15T09:58:22.098Z,65536
2017-03-15T09:59:24.308Z,65536
2017-03-15T10:00:26.190Z,65536
2017-03-15T10:01:28.050Z,65536
2017-03-15T10:02:29.931Z,65536
2017-03-15T10:03:31.787Z,65536
2017-03-15T10:04:34.011Z,65536
2017-03-15T10:05:35.869Z,65536
2017-03-15T10:06:37.767Z,65536
2017-03-15T10:07:39.633Z,65536
2017-03-15T10:08:41.497Z,65536
2017-03-15T10:09:43.712Z,65536
2017-03-15T10:10:45.594Z,65536
2017-03-15T10:11:47.463Z,65536
2017-03-15T10:12:49.686Z,65536
2017-03-15T10:13:51.571Z,65536
2017-03-15T10:14:53.441Z,65536
2017-03-15T10:15:55.649Z,65536
2017-03-15T10:16:57.514Z,65536
2017-03-15T10:17:59.380Z,15596
2017-03-15T10:19:01.244Z,65536
2017-03-15T10:20:03.110Z,65536
2017-03-15T10:21:04.980Z,65536
2017-03-15T10:22:06.852Z,65536
2017-03-15T10:23:08.748Z,65536
2017-03-15T10:24:10.608Z,65536
2017-03-15T10:25:12.489Z,65536
2017-03-15T10:26:14.350Z,65536
2017-03-15T10:27:16.221Z,65536
2017-03-15T10:28:18.089Z,65536
2017-03-15T10:29:19.952Z,65536
2017-03-15T10:30:21.814Z,65536
2017-03-15T10:31:23.691Z,65536
2017-03-15T10:32:25.541Z,65536
2017-03-15T10:33:27.408Z,65536
2017-03-15T10:34:29.286Z,65536
2017-03-15T10:35:31.151Z,65536
2017-03-15T10:36:33.017Z,65536
2017-03-15T10:37:34.887Z,65536
2017-03-15T10:38:36.754Z,65536
2017-03-15T10:39:38.631Z,65536
2017-03-15T10:40:40.512Z,65536
2017-03-15T10:41:42.374Z,65536
2017-03-15T10:42:44.236Z,65536
2017-03-15T10:43:46.447Z,65536
2017-03-15T10:44:48.320Z,65536
2017-03-15T10:45:50.533Z,65536
2017-03-15T10:46:52.397Z,65536
2017-03-15T10:47:54.607Z,65536
2017-03-15T10:48:56.475Z,65536
2017-03-15T10:49:58.355Z,65536
2017-03-15T10:51:00.216Z,65536
2017-03-15T10:52:02.072Z,65536
2017-03-15T10:53:04.314Z,65536
2017-03-15T10:54:06.169Z,65536
2017-03-15T10:55:08.032Z,65536
2017-03-15T10:56:09.892Z,65536
2017-03-15T10:57:12.098Z,65536
2017-03-15T10:58:14.013Z,65536
2017-03-15T10:59:15.885Z,65536
2017-03-15T11:00:17.745Z,65536
2017-03-15T11:01:19.611Z,65536
2017-03-15T11:02:21.484Z,65536
2017-03-15T11:03:23.352Z,65536
2017-03-15T11:04:25.216Z,65536
2017-03-15T11:05:27.071Z,65536
2017-03-15T11:06:29.278Z,65536
2017-03-15T11:07:31.160Z,65536
2017-03-15T11:08:33.048Z,65536
2017-03-15T11:09:34.928Z,65536
2017-03-15T11:10:36.785Z,65536
2017-03-15T11:11:38.653Z,65536
2017-03-15T11:12:40.516Z,65536
2017-03-15T11:13:42.391Z,65536
2017-03-15T11:14:44.249Z,65536
2017-03-15T11:15:46.131Z,65536
2017-03-15T11:16:48.019Z,65536
2017-03-15T11:17:50.229Z,65536
2017-03-15T11:18:52.118Z,65536
2017-03-15T11:19:53.993Z,65536
2017-03-15T11:20:55.851Z,65536
2017-03-15T11:21:57.730Z,65536
2017-03-15T11:22:59.599Z,65536
2017-03-15T11:24:01.463Z,65536
2017-03-15T11:25:03.319Z,65536
2017-03-15T11:26:05.190Z,65536
2017-03-15T11:27:07.055Z,65536
2017-03-15T11:28:09.257Z,65536
2017-03-15T11:29:11.129Z,65536
2017-03-15T11:30:12.996Z,65536
2017-03-15T11:31:15.198Z,65536
2017-03-15T11:32:17.065Z,65536
2017-03-15T11:33:19.261Z,65536
2017-03-15T11:34:21.812Z,65536
2017-03-15T11:35:23.685Z,65536
2017-03-15T11:36:25.551Z,65536
2017-03-15T11:37:27.410Z,65536
2017-03-15T11:38:29.287Z,65536
2017-03-15T11:39:31.167Z,65536
2017-03-15T11:40:33.333Z,65536
2017-03-15T11:41:35.195Z,65536
2017-03-15T11:42:37.086Z,65536
2017-03-15T11:43:38.952Z,65536
2017-03-15T11:44:40.818Z,65536
2017-03-15T11:45:42.685Z,65536
2017-03-15T11:46:44.538Z,65536
2017-03-15T11:47:46.402Z,65536
2017-03-15T11:48:48.263Z,65536
2017-03-15T11:49:50.146Z,65536
2017-03-15T11:50:52.013Z,65536
2017-03-15T11:51:53.871Z,65536
2017-03-15T11:52:55.738Z,65536
2017-03-15T11:53:57.594Z,65536
2017-03-15T11:54:59.465Z,65536
2017-03-15T11:56:01.325Z,65536
2017-03-15T11:57:03.185Z,65536
2017-03-15T11:58:05.043Z,65536
2017-03-15T11:59:06.906Z,65536
2017-03-15T12:00:08.771Z,65536
2017-03-15T12:01:10.637Z,65536
2017-03-15T12:02:12.496Z,65536
2017-03-15T12:03:14.361Z,65536
2017-03-15T12:04:16.223Z,65536
2017-03-15T12:05:18.432Z,65536
2017-03-15T12:06:20.298Z,65536
2017-03-15T12:07:22.167Z,65536
2017-03-15T12:08:24.374Z,65536
2017-03-15T12:09:26.573Z,65536
2017-03-15T12:10:28.434Z,65536
2017-03-15T12:11:30.294Z,65536
2017-03-15T12:12:32.162Z,65536
2017-03-15T12:13:34.025Z,65536
2017-03-15T12:14:35.884Z,65536
2017-03-15T12:15:38.089Z,65536
2017-03-15T12:16:40.291Z,65536
2017-03-15T12:17:42.158Z,65536
2017-03-15T12:18:44.024Z,65536
2017-03-15T12:19:45.886Z,65536
2017-03-15T12:20:47.750Z,65536
2017-03-15T12:21:49.616Z,65536
2017-03-15T12:22:51.477Z,65536
2017-03-15T12:23:53.678Z,65536
2017-03-15T12:24:55.883Z,65536
2017-03-15T12:25:57.745Z,65536
2017-03-15T12:26:59.616Z,65536
2017-03-15T12:28:01.810Z,65536
2017-03-15T12:29:03.700Z,65536
2017-03-15T12:30:05.559Z,65536
2017-03-15T12:31:07.436Z,65536
2017-03-15T12:32:09.305Z,65536
2017-03-15T12:33:11.162Z,65536
2017-03-15T12:34:13.031Z,65536
2017-03-15T12:35:14.894Z,65536
2017-03-15T12:36:16.767Z,65536
2017-03-15T12:37:18.648Z,65536
2017-03-15T12:38:20.511Z,65536
2017-03-15T12:39:22.390Z,65536
2017-03-15T12:40:24.262Z,65536
2017-03-15T12:41:26.132Z,65536
2017-03-15T12:42:27.997Z,65536
2017-03-15T12:43:29.862Z,65536
2017-03-15T12:44:31.731Z,65536
2017-03-15T12:45:33.592Z,65536
2017-03-15T12:46:35.459Z,65536
2017-03-15T12:47:37.318Z,65536
2017-03-15T12:48:39.194Z,65536
2017-03-15T12:49:41.069Z,65536
2017-03-15T12:50:42.960Z,65536
2017-03-15T12:51:44.836Z,65536
2017-03-15T12:52:46.714Z,65536
2017-03-15T12:53:48.587Z,65536
2017-03-15T12:54:50.460Z,65536
2017-03-15T12:55:52.663Z,65536
2017-03-15T12:56:54.548Z,65536
2017-03-15T12:57:56.765Z,65536
2017-03-15T12:58:58.632Z,65536
2017-03-15T13:00:00.497Z,65536
2017-03-15T13:01:02.690Z,65536
2017-03-15T13:02:04.558Z,65536
2017-03-15T13:03:06.428Z,65536
2017-03-15T13:04:08.293Z,65536
2017-03-15T13:05:10.151Z,65536
2017-03-15T13:06:12.021Z,65536
2017-03-15T13:07:13.895Z,65536
2017-03-15T13:08:15.774Z,65536
2017-03-15T13:09:17.979Z,65536
2017-03-15T13:10:19.854Z,65536
2017-03-15T13:11:21.728Z,65536
2017-03-15T13:12:23.607Z,65536
2017-03-15T13:13:25.502Z,65536
2017-03-15T13:14:27.374Z,65536
2017-03-15T13:15:29.237Z,16160
2017-03-15T13:16:31.101Z,65536
2017-03-15T13:17:32.978Z,65536
2017-03-15T13:18:34.842Z,65536
2017-03-15T13:19:36.710Z,65536
2017-03-15T13:20:38.581Z,29360
2017-03-15T13:21:40.786Z,65536
2017-03-15T13:22:42.648Z,65536
2017-03-15T13:23:44.519Z,65536
2017-03-15T13:24:46.384Z,65536
2017-03-15T13:25:48.240Z,28397
2017-03-15T13:26:50.119Z,65536
2017-03-15T13:27:51.991Z,65536
2017-03-15T13:28:53.851Z,65536
2017-03-15T13:29:55.717Z,65536
2017-03-15T13:30:57.589Z,65536
2017-03-15T13:31:59.492Z,65536
2017-03-15T13:33:01.353Z,65536
2017-03-15T13:34:03.226Z,65536
2017-03-15T13:35:05.092Z,65536
2017-03-15T13:36:06.956Z,65536
2017-03-15T13:37:08.826Z,65536
2017-03-15T13:38:10.695Z,29518
2017-03-15T13:39:12.565Z,65536
2017-03-15T13:40:14.433Z,20609
2017-03-15T13:41:16.307Z,65536
2017-03-15T13:42:18.167Z,26722
2017-03-15T13:43:20.028Z,28226
2017-03-15T13:44:21.895Z,12513
2017-03-15T13:45:23.782Z,28014
2017-03-15T13:46:25.652Z,65536
2017-03-15T13:47:27.545Z,29070
2017-03-15T13:48:29.752Z,26258
2017-03-15T13:49:31.624Z,21530
2017-03-15T13:50:33.478Z,23708
2017-03-15T13:51:35.343Z,24607
2017-03-15T13:52:37.203Z,23139
2017-03-15T13:53:39.081Z,26525
2017-03-15T13:54:40.943Z,22054
2017-03-15T13:55:42.810Z,24592
2017-03-15T13:56:45.019Z,65536
2017-03-15T13:57:47.212Z,27079
2017-03-15T13:58:49.078Z,23986
2017-03-15T13:59:50.945Z,25448
2017-03-15T14:00:52.817Z,20566
2017-03-15T14:01:54.679Z,27010
2017-03-15T14:02:56.551Z,19110
2017-03-15T14:03:58.420Z,19596
2017-03-15T14:05:00.288Z,19490
2017-03-15T14:06:02.156Z,21686